sensor_id;sensor_type;location;lat;lon;timestamp;temperature;humidity
1538;DHT22;12022;52.266;10.522;2022-11-20T00:01:15;0.10;99.90
1538;DHT22;12022;52.266;10.522;2022-11-20T00:03:42;0.10;99.90
1538;DHT22;12022;52.266;10.522;2022-11-20T00:06:12;0.20;99.90
1538;DHT22;12022;52.266;10.522;2022-11-20T00:08:39;0.30;99.90
1538;DHT22;12022;52.266;10.522;2022-11-20T00:11:11;0.40;99.90
1538;DHT22;12022;52.266;10.522;2022-11-20T00:13:43;0.40;99.90
1538;DHT22;12022;52.266;10.522;2022-11-20T00:16:12;0.70;99.90
1538;DHT22;12022;52.266;10.522;2022-11-20T00:18:39;0.50;99.90
1538;DHT22;12022;52.266;10.522;2022-11-20T00:21:10;0.40;99.90
1538;DHT22;12022;52.266;10.522;2022-11-20T00:23:37;0.40;99.90
1538;DHT22;12022;52.266;10.522;2022-11-20T00:26:10;0.30;99.90
1538;DHT22;12022;52.266;10.522;2022-11-20T00:28:38;0.30;99.90
1538;DHT22;12022;52.266;10.522;2022-11-20T00:31:15;0.40;99.90
1538;DHT22;12022;52.266;10.522;2022-11-20T00:33:42;0.40;99.90
1538;DHT22;12022;52.266;10.522;2022-11-20T00:36:15;0.40;99.90
1538;DHT22;12022;52.266;10.522;2022-11-20T00:38:42;0.50;99.90
1538;DHT22;12022;52.266;10.522;2022-11-20T00:41:12;0.50;99.90
1538;DHT22;12022;52.266;10.522;2022-11-20T00:43:39;0.50;99.90
1538;DHT22;12022;52.266;10.522;2022-11-20T00:46:09;0.40;99.90
1538;DHT22;12022;52.266;10.522;2022-11-20T00:48:36;0.60;99.90
1538;DHT22;12022;52.266;10.522;2022-11-20T00:51:03;0.30;99.90
1538;DHT22;12022;52.266;10.522;2022-11-20T00:53:30;0.20;99.90
1538;DHT22;12022;52.266;10.522;2022-11-20T00:56:02;0.20;99.90
1538;DHT22;12022;52.266;10.522;2022-11-20T00:58:32;0.10;99.90
1538;DHT22;12022;52.266;10.522;2022-11-20T01:01:05;0.00;99.90
1538;DHT22;12022;52.266;10.522;2022-11-20T01:03:33;0.00;99.90
1538;DHT22;12022;52.266;10.522;2022-11-20T01:06:07;-0.10;99.90
1538;DHT22;12022;52.266;10.522;2022-11-20T01:08:34;-0.10;99.90
1538;DHT22;12022;52.266;10.522;2022-11-20T01:11:13;-0.20;99.90
1538;DHT22;12022;52.266;10.522;2022-11-20T01:13:40;-0.20;99.90
1538;DHT22;12022;52.266;10.522;2022-11-20T01:16:14;-0.20;99.90
1538;DHT22;12022;52.266;10.522;2022-11-20T01:18:43;-0.30;99.90
1538;DHT22;12022;52.266;10.522;2022-11-20T01:21:12;-0.10;99.90
1538;DHT22;12022;52.266;10.522;2022-11-20T01:23:41;-0.40;99.90
1538;DHT22;12022;52.266;10.522;2022-11-20T01:26:11;-0.40;99.90
1538;DHT22;12022;52.266;10.522;2022-11-20T01:28:39;-0.40;99.90
1538;DHT22;12022;52.266;10.522;2022-11-20T01:31:18;-0.50;99.90
1538;DHT22;12022;52.266;10.522;2022-11-20T01:33:46;-0.50;99.90
1538;DHT22;12022;52.266;10.522;2022-11-20T01:36:14;-0.50;99.90
1538;DHT22;12022;52.266;10.522;2022-11-20T01:38:42;-0.50;99.90
1538;DHT22;12022;52.266;10.522;2022-11-20T01:41:10;-0.60;99.90
1538;DHT22;12022;52.266;10.522;2022-11-20T01:43:59;-0.60;99.90
1538;DHT22;12022;52.266;10.522;2022-11-20T01:46:26;-0.60;99.90
1538;DHT22;12022;52.266;10.522;2022-11-20T01:49:08;-0.70;99.90
1538;DHT22;12022;52.266;10.522;2022-11-20T01:51:51;-0.70;99.90
1538;DHT22;12022;52.266;10.522;2022-11-20T01:54:35;-0.50;99.90
1538;DHT22;12022;52.266;10.522;2022-11-20T01:57:04;-0.70;99.90
1538;DHT22;12022;52.266;10.522;2022-11-20T01:59:33;-0.80;99.90
1538;DHT22;12022;52.266;10.522;2022-11-20T02:02:00;-0.80;99.90
1538;DHT22;12022;52.266;10.522;2022-11-20T02:04:27;-0.80;99.90
1538;DHT22;12022;52.266;10.522;2022-11-20T02:07:01;-0.80;99.90
1538;DHT22;12022;52.266;10.522;2022-11-20T02:09:29;-0.80;99.90
1538;DHT22;12022;52.266;10.522;2022-11-20T02:11:56;-0.80;99.90
1538;DHT22;12022;52.266;10.522;2022-11-20T02:14:24;-0.80;99.90
1538;DHT22;12022;52.266;10.522;2022-11-20T02:16:52;-0.80;99.90
1538;DHT22;12022;52.266;10.522;2022-11-20T02:19:26;-0.80;99.90
1538;DHT22;12022;52.266;10.522;2022-11-20T02:22:21;-0.50;99.90
1538;DHT22;12022;52.266;10.522;2022-11-20T02:24:50;-0.70;99.90
1538;DHT22;12022;52.266;10.522;2022-11-20T02:27:18;-0.80;99.90
1538;DHT22;12022;52.266;10.522;2022-11-20T02:32:32;-0.70;99.90
1538;DHT22;12022;52.266;10.522;2022-11-20T02:37:58;-0.50;99.90
1538;DHT22;12022;52.266;10.522;2022-11-20T02:40:25;-0.50;99.90
1538;DHT22;12022;52.266;10.522;2022-11-20T02:42:53;-0.50;99.90
1538;DHT22;12022;52.266;10.522;2022-11-20T02:45:20;0.00;99.90
1538;DHT22;12022;52.266;10.522;2022-11-20T02:47:47;-0.30;99.90
1538;DHT22;12022;52.266;10.522;2022-11-20T02:50:14;-0.30;99.90
1538;DHT22;12022;52.266;10.522;2022-11-20T02:52:42;-0.30;99.90
1538;DHT22;12022;52.266;10.522;2022-11-20T02:55:09;-0.20;99.90
1538;DHT22;12022;52.266;10.522;2022-11-20T02:57:36;-0.10;99.90
1538;DHT22;12022;52.266;10.522;2022-11-20T03:00:04;-0.10;99.90
1538;DHT22;12022;52.266;10.522;2022-11-20T03:02:31;0.00;99.90
1538;DHT22;12022;52.266;10.522;2022-11-20T03:04:58;0.30;99.90
1538;DHT22;12022;52.266;10.522;2022-11-20T03:07:25;0.10;99.90
1538;DHT22;12022;52.266;10.522;2022-11-20T03:09:52;0.10;99.90
1538;DHT22;12022;52.266;10.522;2022-11-20T03:12:19;0.10;99.90
1538;DHT22;12022;52.266;10.522;2022-11-20T03:14:46;0.60;99.90
1538;DHT22;12022;52.266;10.522;2022-11-20T03:17:18;0.30;99.90
1538;DHT22;12022;52.266;10.522;2022-11-20T03:19:45;0.30;99.90
1538;DHT22;12022;52.266;10.522;2022-11-20T03:22:12;0.20;99.90
1538;DHT22;12022;52.266;10.522;2022-11-20T03:24:39;0.30;99.90
1538;DHT22;12022;52.266;10.522;2022-11-20T03:27:06;0.30;99.90
1538;DHT22;12022;52.266;10.522;2022-11-20T03:29:34;0.30;99.90
1538;DHT22;12022;52.266;10.522;2022-11-20T03:32:01;0.40;99.90
1538;DHT22;12022;52.266;10.522;2022-11-20T03:34:28;0.40;99.90
1538;DHT22;12022;52.266;10.522;2022-11-20T03:36:55;0.40;99.90
1538;DHT22;12022;52.266;10.522;2022-11-20T03:39:21;0.40;99.90
1538;DHT22;12022;52.266;10.522;2022-11-20T03:41:49;0.40;99.90
1538;DHT22;12022;52.266;10.522;2022-11-20T03:44:16;0.30;99.90
1538;DHT22;12022;52.266;10.522;2022-11-20T03:46:42;0.30;99.90
1538;DHT22;12022;52.266;10.522;2022-11-20T03:49:09;0.30;99.90
1538;DHT22;12022;52.266;10.522;2022-11-20T03:51:36;0.30;99.90
1538;DHT22;12022;52.266;10.522;2022-11-20T03:54:08;0.60;99.90
1538;DHT22;12022;52.266;10.522;2022-11-20T03:56:37;0.20;99.90
1538;DHT22;12022;52.266;10.522;2022-11-20T03:59:04;0.20;99.90
1538;DHT22;12022;52.266;10.522;2022-11-20T04:01:33;0.20;99.90
1538;DHT22;12022;52.266;10.522;2022-11-20T04:04:01;0.10;99.90
1538;DHT22;12022;52.266;10.522;2022-11-20T04:06:36;0.30;99.90
1538;DHT22;12022;52.266;10.522;2022-11-20T04:09:04;0.00;99.90
1538;DHT22;12022;52.266;10.522;2022-11-20T04:11:34;0.00;99.90
1538;DHT22;12022;52.266;10.522;2022-11-20T04:14:04;-0.10;99.90
1538;DHT22;12022;52.266;10.522;2022-11-20T04:16:33;-0.10;99.90
1538;DHT22;12022;52.266;10.522;2022-11-20T04:19:02;-0.10;99.90
1538;DHT22;12022;52.266;10.522;2022-11-20T04:21:30;-0.10;99.90
1538;DHT22;12022;52.266;10.522;2022-11-20T04:23:57;-0.10;99.90
1538;DHT22;12022;52.266;10.522;2022-11-20T04:26:26;-0.20;99.90
1538;DHT22;12022;52.266;10.522;2022-11-20T04:28:53;-0.20;99.90
1538;DHT22;12022;52.266;10.522;2022-11-20T04:31:23;0.00;99.90
1538;DHT22;12022;52.266;10.522;2022-11-20T04:33:50;-0.20;99.90
1538;DHT22;12022;52.266;10.522;2022-11-20T04:36:20;-0.20;99.90
1538;DHT22;12022;52.266;10.522;2022-11-20T04:38:51;-0.20;99.90
1538;DHT22;12022;52.266;10.522;2022-11-20T04:41:28;-0.30;99.90
1538;DHT22;12022;52.266;10.522;2022-11-20T04:43:57;-0.20;99.90
1538;DHT22;12022;52.266;10.522;2022-11-20T04:46:31;-0.30;99.90
1538;DHT22;12022;52.266;10.522;2022-11-20T04:48:58;0.00;99.90
1538;DHT22;12022;52.266;10.522;2022-11-20T04:51:26;-0.40;99.90
1538;DHT22;12022;52.266;10.522;2022-11-20T04:53:53;-0.40;99.90
1538;DHT22;12022;52.266;10.522;2022-11-20T04:56:20;-0.40;99.90
1538;DHT22;12022;52.266;10.522;2022-11-20T04:58:47;-0.40;99.90
1538;DHT22;12022;52.266;10.522;2022-11-20T05:01:16;-0.50;99.90
1538;DHT22;12022;52.266;10.522;2022-11-20T05:03:44;-0.50;99.90
1538;DHT22;12022;52.266;10.522;2022-11-20T05:06:13;-0.40;99.90
1538;DHT22;12022;52.266;10.522;2022-11-20T05:08:40;-0.40;99.90
1538;DHT22;12022;52.266;10.522;2022-11-20T05:11:10;-0.20;99.90
1538;DHT22;12022;52.266;10.522;2022-11-20T05:13:38;-0.40;99.90
1538;DHT22;12022;52.266;10.522;2022-11-20T05:16:13;-0.20;99.90
1538;DHT22;12022;52.266;10.522;2022-11-20T05:18:41;-0.40;99.90
1538;DHT22;12022;52.266;10.522;2022-11-20T05:21:09;-0.30;99.90
1538;DHT22;12022;52.266;10.522;2022-11-20T05:23:36;-0.30;99.90
1538;DHT22;12022;52.266;10.522;2022-11-20T05:26:04;-0.20;99.90
1538;DHT22;12022;52.266;10.522;2022-11-20T05:28:32;-0.20;99.90
1538;DHT22;12022;52.266;10.522;2022-11-20T05:31:06;0.00;99.90
1538;DHT22;12022;52.266;10.522;2022-11-20T05:33:34;0.30;99.90
1538;DHT22;12022;52.266;10.522;2022-11-20T05:36:03;0.00;99.90
1538;DHT22;12022;52.266;10.522;2022-11-20T05:38:30;0.00;99.90
1538;DHT22;12022;52.266;10.522;2022-11-20T05:41:07;0.10;99.90
1538;DHT22;12022;52.266;10.522;2022-11-20T05:43:36;0.10;99.90
1538;DHT22;12022;52.266;10.522;2022-11-20T05:46:03;0.10;99.90
1538;DHT22;12022;52.266;10.522;2022-11-20T05:48:31;0.10;99.90
1538;DHT22;12022;52.266;10.522;2022-11-20T05:50:59;0.20;99.90
1538;DHT22;12022;52.266;10.522;2022-11-20T05:53:26;0.20;99.90
1538;DHT22;12022;52.266;10.522;2022-11-20T05:56:07;0.20;99.90
1538;DHT22;12022;52.266;10.522;2022-11-20T05:58:34;0.20;99.90
1538;DHT22;12022;52.266;10.522;2022-11-20T06:01:19;0.30;99.90
1538;DHT22;12022;52.266;10.522;2022-11-20T06:03:47;0.30;99.90
1538;DHT22;12022;52.266;10.522;2022-11-20T06:06:16;0.40;99.90
1538;DHT22;12022;52.266;10.522;2022-11-20T06:08:44;0.40;99.90
1538;DHT22;12022;52.266;10.522;2022-11-20T06:11:12;0.40;99.90
1538;DHT22;12022;52.266;10.522;2022-11-20T06:13:39;0.50;99.90
1538;DHT22;12022;52.266;10.522;2022-11-20T06:16:09;0.50;99.90
1538;DHT22;12022;52.266;10.522;2022-11-20T06:18:37;0.60;99.90
1538;DHT22;12022;52.266;10.522;2022-11-20T06:21:06;0.60;99.90
1538;DHT22;12022;52.266;10.522;2022-11-20T06:23:34;0.60;99.90
1538;DHT22;12022;52.266;10.522;2022-11-20T06:26:07;0.60;99.90
1538;DHT22;12022;52.266;10.522;2022-11-20T06:28:35;0.60;99.90
1538;DHT22;12022;52.266;10.522;2022-11-20T06:31:03;0.60;99.90
1538;DHT22;12022;52.266;10.522;2022-11-20T06:33:30;0.70;99.90
1538;DHT22;12022;52.266;10.522;2022-11-20T06:36:00;0.70;99.90
1538;DHT22;12022;52.266;10.522;2022-11-20T06:38:36;0.70;99.90
1538;DHT22;12022;52.266;10.522;2022-11-20T06:41:06;0.80;99.90
1538;DHT22;12022;52.266;10.522;2022-11-20T06:43:33;0.80;99.90
1538;DHT22;12022;52.266;10.522;2022-11-20T06:46:00;0.80;99.90
1538;DHT22;12022;52.266;10.522;2022-11-20T06:48:28;0.80;99.90
1538;DHT22;12022;52.266;10.522;2022-11-20T06:50:56;0.80;99.90
1538;DHT22;12022;52.266;10.522;2022-11-20T06:53:23;0.90;99.90
1538;DHT22;12022;52.266;10.522;2022-11-20T06:55:51;0.90;99.90
1538;DHT22;12022;52.266;10.522;2022-11-20T06:58:18;1.20;99.90
1538;DHT22;12022;52.266;10.522;2022-11-20T07:00:45;0.90;99.90
1538;DHT22;12022;52.266;10.522;2022-11-20T07:03:12;0.90;99.90
1538;DHT22;12022;52.266;10.522;2022-11-20T07:05:39;0.90;99.90
1538;DHT22;12022;52.266;10.522;2022-11-20T07:08:07;1.00;99.90
1538;DHT22;12022;52.266;10.522;2022-11-20T07:10:34;1.20;99.90
1538;DHT22;12022;52.266;10.522;2022-11-20T07:13:01;1.00;99.90
1538;DHT22;12022;52.266;10.522;2022-11-20T07:15:28;1.00;99.90
1538;DHT22;12022;52.266;10.522;2022-11-20T07:17:58;1.50;99.90
1538;DHT22;12022;52.266;10.522;2022-11-20T07:20:26;1.10;99.90
1538;DHT22;12022;52.266;10.522;2022-11-20T07:22:54;1.10;99.90
1538;DHT22;12022;52.266;10.522;2022-11-20T07:25:22;1.10;99.90
1538;DHT22;12022;52.266;10.522;2022-11-20T07:27:49;1.10;99.90
1538;DHT22;12022;52.266;10.522;2022-11-20T07:30:17;1.10;99.90
1538;DHT22;12022;52.266;10.522;2022-11-20T07:32:50;1.30;99.90
1538;DHT22;12022;52.266;10.522;2022-11-20T07:35:17;1.20;99.90
1538;DHT22;12022;52.266;10.522;2022-11-20T07:37:44;1.20;99.90
1538;DHT22;12022;52.266;10.522;2022-11-20T07:40:13;1.20;99.90
1538;DHT22;12022;52.266;10.522;2022-11-20T07:42:50;1.50;99.90
1538;DHT22;12022;52.266;10.522;2022-11-20T07:45:19;1.20;99.90
1538;DHT22;12022;52.266;10.522;2022-11-20T07:47:46;1.50;99.90
1538;DHT22;12022;52.266;10.522;2022-11-20T07:50:13;1.30;99.90
1538;DHT22;12022;52.266;10.522;2022-11-20T07:52:40;1.30;99.90
1538;DHT22;12022;52.266;10.522;2022-11-20T07:55:09;1.40;99.90
1538;DHT22;12022;52.266;10.522;2022-11-20T07:57:36;1.40;99.90
1538;DHT22;12022;52.266;10.522;2022-11-20T08:00:05;1.60;99.90
1538;DHT22;12022;52.266;10.522;2022-11-20T08:02:32;1.50;99.90
1538;DHT22;12022;52.266;10.522;2022-11-20T08:04:59;1.50;99.90
1538;DHT22;12022;52.266;10.522;2022-11-20T08:07:26;1.50;99.90
1538;DHT22;12022;52.266;10.522;2022-11-20T08:09:53;1.50;99.90
1538;DHT22;12022;52.266;10.522;2022-11-20T08:12:21;1.70;99.90
1538;DHT22;12022;52.266;10.522;2022-11-20T08:15:07;1.60;99.90
1538;DHT22;12022;52.266;10.522;2022-11-20T08:17:38;1.60;99.90
1538;DHT22;12022;52.266;10.522;2022-11-20T08:20:06;1.90;99.90
1538;DHT22;12022;52.266;10.522;2022-11-20T08:22:33;1.60;99.90
1538;DHT22;12022;52.266;10.522;2022-11-20T08:25:00;1.60;99.90
1538;DHT22;12022;52.266;10.522;2022-11-20T08:27:27;1.70;99.90
1538;DHT22;12022;52.266;10.522;2022-11-20T08:29:54;1.70;99.90
1538;DHT22;12022;52.266;10.522;2022-11-20T08:32:21;2.10;99.90
1538;DHT22;12022;52.266;10.522;2022-11-20T08:34:48;1.90;99.90
1538;DHT22;12022;52.266;10.522;2022-11-20T08:37:15;2.30;99.90
1538;DHT22;12022;52.266;10.522;2022-11-20T08:39:42;2.00;99.90
1538;DHT22;12022;52.266;10.522;2022-11-20T08:42:09;2.20;99.90
1538;DHT22;12022;52.266;10.522;2022-11-20T08:44:36;2.10;99.90
1538;DHT22;12022;52.266;10.522;2022-11-20T08:47:03;2.20;99.90
1538;DHT22;12022;52.266;10.522;2022-11-20T08:49:29;2.20;99.90
1538;DHT22;12022;52.266;10.522;2022-11-20T08:51:57;2.20;99.90
1538;DHT22;12022;52.266;10.522;2022-11-20T08:54:24;2.20;99.90
1538;DHT22;12022;52.266;10.522;2022-11-20T08:57:03;2.30;99.90
1538;DHT22;12022;52.266;10.522;2022-11-20T08:59:30;2.30;99.90
1538;DHT22;12022;52.266;10.522;2022-11-20T09:02:17;2.30;99.90
1538;DHT22;12022;52.266;10.522;2022-11-20T09:04:44;2.40;99.90
1538;DHT22;12022;52.266;10.522;2022-11-20T09:07:11;2.80;99.90
1538;DHT22;12022;52.266;10.522;2022-11-20T09:09:38;2.50;99.90
1538;DHT22;12022;52.266;10.522;2022-11-20T09:12:06;2.50;99.90
1538;DHT22;12022;52.266;10.522;2022-11-20T09:14:32;2.60;99.90
1538;DHT22;12022;52.266;10.522;2022-11-20T09:17:00;2.70;99.90
1538;DHT22;12022;52.266;10.522;2022-11-20T09:19:27;2.70;99.90
1538;DHT22;12022;52.266;10.522;2022-11-20T09:22:02;2.80;99.90
1538;DHT22;12022;52.266;10.522;2022-11-20T09:24:29;2.90;99.90
1538;DHT22;12022;52.266;10.522;2022-11-20T09:26:56;3.10;99.90
1538;DHT22;12022;52.266;10.522;2022-11-20T09:29:23;3.00;99.90
1538;DHT22;12022;52.266;10.522;2022-11-20T09:31:50;3.00;99.90
1538;DHT22;12022;52.266;10.522;2022-11-20T09:34:17;3.10;99.90
1538;DHT22;12022;52.266;10.522;2022-11-20T09:36:44;3.50;99.90
1538;DHT22;12022;52.266;10.522;2022-11-20T09:39:11;3.30;99.90
1538;DHT22;12022;52.266;10.522;2022-11-20T09:44:24;3.50;99.90
1538;DHT22;12022;52.266;10.522;2022-11-20T09:47:07;3.60;99.90
1538;DHT22;12022;52.266;10.522;2022-11-20T09:49:59;3.70;99.90
1538;DHT22;12022;52.266;10.522;2022-11-20T09:55:13;3.90;99.90
1538;DHT22;12022;52.266;10.522;2022-11-20T09:57:44;4.00;99.90
1538;DHT22;12022;52.266;10.522;2022-11-20T10:00:14;4.00;99.90
1538;DHT22;12022;52.266;10.522;2022-11-20T10:02:48;4.00;99.90
1538;DHT22;12022;52.266;10.522;2022-11-20T10:05:42;4.00;99.90
1538;DHT22;12022;52.266;10.522;2022-11-20T10:08:21;4.00;99.90
1538;DHT22;12022;52.266;10.522;2022-11-20T10:11:33;3.90;99.90
1538;DHT22;12022;52.266;10.522;2022-11-20T10:14:31;3.80;99.90
1538;DHT22;12022;52.266;10.522;2022-11-20T10:26:17;3.70;99.90
1538;DHT22;12022;52.266;10.522;2022-11-20T10:29:01;4.00;99.90
1538;DHT22;12022;52.266;10.522;2022-11-20T10:31:37;4.00;99.90
1538;DHT22;12022;52.266;10.522;2022-11-20T10:34:32;4.10;99.90
1538;DHT22;12022;52.266;10.522;2022-11-20T10:37:23;4.10;99.90
1538;DHT22;12022;52.266;10.522;2022-11-20T10:40:03;4.10;99.90
1538;DHT22;12022;52.266;10.522;2022-11-20T10:42:39;4.00;99.90
1538;DHT22;12022;52.266;10.522;2022-11-20T10:48:10;4.20;99.90
1538;DHT22;12022;52.266;10.522;2022-11-20T10:50:43;4.40;99.90
1538;DHT22;12022;52.266;10.522;2022-11-20T11:01:26;3.80;99.90
1538;DHT22;12022;52.266;10.522;2022-11-20T11:03:55;3.80;99.90
1538;DHT22;12022;52.266;10.522;2022-11-20T11:06:38;4.00;99.90
1538;DHT22;12022;52.266;10.522;2022-11-20T11:09:15;4.00;99.90
1538;DHT22;12022;52.266;10.522;2022-11-20T11:11:43;4.10;99.90
1538;DHT22;12022;52.266;10.522;2022-11-20T11:14:15;4.30;99.90
1538;DHT22;12022;52.266;10.522;2022-11-20T11:16:57;4.00;99.90
1538;DHT22;12022;52.266;10.522;2022-11-20T11:19:24;3.80;99.90
1538;DHT22;12022;52.266;10.522;2022-11-20T11:21:54;3.60;99.90
1538;DHT22;12022;52.266;10.522;2022-11-20T11:24:31;3.80;99.90
1538;DHT22;12022;52.266;10.522;2022-11-20T11:27:14;3.40;99.90
1538;DHT22;12022;52.266;10.522;2022-11-20T11:29:45;3.30;99.90
1538;DHT22;12022;52.266;10.522;2022-11-20T11:32:20;3.30;99.90
1538;DHT22;12022;52.266;10.522;2022-11-20T11:34:59;3.30;99.90
1538;DHT22;12022;52.266;10.522;2022-11-20T11:37:35;3.60;99.90
1538;DHT22;12022;52.266;10.522;2022-11-20T11:40:05;3.50;99.90
1538;DHT22;12022;52.266;10.522;2022-11-20T11:42:54;3.70;99.90
1538;DHT22;12022;52.266;10.522;2022-11-20T11:45:23;3.90;99.90
1538;DHT22;12022;52.266;10.522;2022-11-20T11:47:52;4.10;99.90
1538;DHT22;12022;52.266;10.522;2022-11-20T11:50:25;4.50;99.90
1538;DHT22;12022;52.266;10.522;2022-11-20T11:58:48;4.60;99.90
1538;DHT22;12022;52.266;10.522;2022-11-20T12:06:50;4.60;99.90
1538;DHT22;12022;52.266;10.522;2022-11-20T12:09:20;4.60;99.90
1538;DHT22;12022;52.266;10.522;2022-11-20T12:11:55;4.60;99.90
1538;DHT22;12022;52.266;10.522;2022-11-20T12:14:35;4.50;99.90
1538;DHT22;12022;52.266;10.522;2022-11-20T12:17:03;4.40;99.90
1538;DHT22;12022;52.266;10.522;2022-11-20T12:19:35;4.30;99.90
1538;DHT22;12022;52.266;10.522;2022-11-20T12:24:55;4.10;99.90
1538;DHT22;12022;52.266;10.522;2022-11-20T12:30:10;4.10;99.90
1538;DHT22;12022;52.266;10.522;2022-11-20T12:32:44;4.10;99.90
1538;DHT22;12022;52.266;10.522;2022-11-20T12:38:39;4.10;99.90
1538;DHT22;12022;52.266;10.522;2022-11-20T12:59:10;3.70;99.90
1538;DHT22;12022;52.266;10.522;2022-11-20T13:01:58;3.70;99.90
1538;DHT22;12022;52.266;10.522;2022-11-20T13:06:57;3.90;99.90
1538;DHT22;12022;52.266;10.522;2022-11-20T13:09:25;4.10;99.90
1538;DHT22;12022;52.266;10.522;2022-11-20T13:12:03;4.20;99.90
1538;DHT22;12022;52.266;10.522;2022-11-20T13:17:41;4.40;99.90
1538;DHT22;12022;52.266;10.522;2022-11-20T13:20:15;4.50;99.90
1538;DHT22;12022;52.266;10.522;2022-11-20T13:22:47;4.50;99.90
1538;DHT22;12022;52.266;10.522;2022-11-20T13:25:32;4.40;99.90
1538;DHT22;12022;52.266;10.522;2022-11-20T13:28:25;4.40;99.90
1538;DHT22;12022;52.266;10.522;2022-11-20T13:30:53;4.20;99.90
1538;DHT22;12022;52.266;10.522;2022-11-20T13:33:33;4.30;99.90
1538;DHT22;12022;52.266;10.522;2022-11-20T13:38:44;4.30;99.90
1538;DHT22;12022;52.266;10.522;2022-11-20T13:41:33;4.30;99.90
1538;DHT22;12022;52.266;10.522;2022-11-20T13:46:39;4.30;99.90
1538;DHT22;12022;52.266;10.522;2022-11-20T13:49:10;4.20;99.90
1538;DHT22;12022;52.266;10.522;2022-11-20T13:51:55;4.50;99.90
1538;DHT22;12022;52.266;10.522;2022-11-20T13:57:54;4.10;99.90
1538;DHT22;12022;52.266;10.522;2022-11-20T14:00:25;3.90;99.90
1538;DHT22;12022;52.266;10.522;2022-11-20T14:03:09;3.80;99.90
1538;DHT22;12022;52.266;10.522;2022-11-20T14:05:45;3.80;99.90
1538;DHT22;12022;52.266;10.522;2022-11-20T14:08:43;3.80;99.90
1538;DHT22;12022;52.266;10.522;2022-11-20T14:11:20;3.70;99.90
1538;DHT22;12022;52.266;10.522;2022-11-20T14:16:34;3.70;99.90
1538;DHT22;12022;52.266;10.522;2022-11-20T14:21:53;3.70;99.90
1538;DHT22;12022;52.266;10.522;2022-11-20T14:24:22;3.70;99.90
1538;DHT22;12022;52.266;10.522;2022-11-20T14:26:52;3.70;99.90
1538;DHT22;12022;52.266;10.522;2022-11-20T14:29:28;3.70;99.90
1538;DHT22;12022;52.266;10.522;2022-11-20T14:31:57;3.80;99.90
1538;DHT22;12022;52.266;10.522;2022-11-20T14:34:32;3.70;99.90
1538;DHT22;12022;52.266;10.522;2022-11-20T14:37:06;3.70;99.90
1538;DHT22;12022;52.266;10.522;2022-11-20T14:39:49;3.70;99.90
1538;DHT22;12022;52.266;10.522;2022-11-20T14:42:22;3.70;99.90
1538;DHT22;12022;52.266;10.522;2022-11-20T14:44:51;3.60;99.90
1538;DHT22;12022;52.266;10.522;2022-11-20T14:47:21;3.60;99.90
1538;DHT22;12022;52.266;10.522;2022-11-20T14:49:50;3.50;99.90
1538;DHT22;12022;52.266;10.522;2022-11-20T14:52:26;3.40;99.90
1538;DHT22;12022;52.266;10.522;2022-11-20T14:54:55;3.50;99.90
1538;DHT22;12022;52.266;10.522;2022-11-20T14:57:29;3.30;99.90
1538;DHT22;12022;52.266;10.522;2022-11-20T15:02:43;3.40;99.90
1538;DHT22;12022;52.266;10.522;2022-11-20T15:05:11;3.40;99.90
1538;DHT22;12022;52.266;10.522;2022-11-20T15:07:41;3.40;99.90
1538;DHT22;12022;52.266;10.522;2022-11-20T15:10:19;3.30;99.90
1538;DHT22;12022;52.266;10.522;2022-11-20T15:12:53;3.50;99.90
1538;DHT22;12022;52.266;10.522;2022-11-20T15:17:56;3.00;99.90
1538;DHT22;12022;52.266;10.522;2022-11-20T15:20:27;3.00;99.90
1538;DHT22;12022;52.266;10.522;2022-11-20T15:22:55;3.30;99.90
1538;DHT22;12022;52.266;10.522;2022-11-20T15:25:22;2.90;99.90
1538;DHT22;12022;52.266;10.522;2022-11-20T15:27:56;2.80;99.90
1538;DHT22;12022;52.266;10.522;2022-11-20T15:30:23;2.80;99.90
1538;DHT22;12022;52.266;10.522;2022-11-20T15:32:51;2.80;99.90
1538;DHT22;12022;52.266;10.522;2022-11-20T15:35:17;2.70;99.90
1538;DHT22;12022;52.266;10.522;2022-11-20T15:37:44;2.70;99.90
1538;DHT22;12022;52.266;10.522;2022-11-20T15:40:12;3.10;99.90
1538;DHT22;12022;52.266;10.522;2022-11-20T15:42:38;2.60;99.90
1538;DHT22;12022;52.266;10.522;2022-11-20T15:45:26;3.00;99.90
1538;DHT22;12022;52.266;10.522;2022-11-20T15:47:54;2.70;99.90
1538;DHT22;12022;52.266;10.522;2022-11-20T15:50:22;2.90;99.90
1538;DHT22;12022;52.266;10.522;2022-11-20T15:52:51;2.40;99.90
1538;DHT22;12022;52.266;10.522;2022-11-20T15:55:18;2.40;99.90
1538;DHT22;12022;52.266;10.522;2022-11-20T15:57:45;2.30;99.90
1538;DHT22;12022;52.266;10.522;2022-11-20T16:00:12;2.20;99.90
1538;DHT22;12022;52.266;10.522;2022-11-20T16:02:41;2.30;99.90
1538;DHT22;12022;52.266;10.522;2022-11-20T16:05:12;2.30;99.90
1538;DHT22;12022;52.266;10.522;2022-11-20T16:07:40;2.30;99.90
1538;DHT22;12022;52.266;10.522;2022-11-20T16:10:07;2.30;99.90
1538;DHT22;12022;52.266;10.522;2022-11-20T16:12:34;2.30;99.90
1538;DHT22;12022;52.266;10.522;2022-11-20T16:15:19;2.30;99.90
1538;DHT22;12022;52.266;10.522;2022-11-20T16:18:08;2.20;99.90
1538;DHT22;12022;52.266;10.522;2022-11-20T16:20:37;2.20;99.90
1538;DHT22;12022;52.266;10.522;2022-11-20T16:23:04;2.20;99.90
1538;DHT22;12022;52.266;10.522;2022-11-20T16:25:31;2.20;99.90
1538;DHT22;12022;52.266;10.522;2022-11-20T16:27:58;2.60;99.90
1538;DHT22;12022;52.266;10.522;2022-11-20T16:30:25;2.40;99.90
1538;DHT22;12022;52.266;10.522;2022-11-20T16:32:52;2.20;99.90
1538;DHT22;12022;52.266;10.522;2022-11-20T16:35:19;2.30;99.90
1538;DHT22;12022;52.266;10.522;2022-11-20T16:37:46;2.30;99.90
1538;DHT22;12022;52.266;10.522;2022-11-20T16:40:13;2.20;99.90
1538;DHT22;12022;52.266;10.522;2022-11-20T16:42:40;2.20;99.90
1538;DHT22;12022;52.266;10.522;2022-11-20T16:45:08;2.10;99.90
1538;DHT22;12022;52.266;10.522;2022-11-20T16:47:35;2.00;99.90
1538;DHT22;12022;52.266;10.522;2022-11-20T16:50:04;1.90;99.90
1538;DHT22;12022;52.266;10.522;2022-11-20T16:52:31;1.90;99.90
1538;DHT22;12022;52.266;10.522;2022-11-20T16:54:58;1.80;99.90
1538;DHT22;12022;52.266;10.522;2022-11-20T16:57:27;1.70;99.90
1538;DHT22;12022;52.266;10.522;2022-11-20T16:59:59;1.70;99.90
1538;DHT22;12022;52.266;10.522;2022-11-20T17:02:28;1.60;99.90
1538;DHT22;12022;52.266;10.522;2022-11-20T17:04:55;1.80;99.90
1538;DHT22;12022;52.266;10.522;2022-11-20T17:07:22;1.60;99.90
1538;DHT22;12022;52.266;10.522;2022-11-20T17:09:49;1.50;99.90
1538;DHT22;12022;52.266;10.522;2022-11-20T17:12:16;1.70;99.90
1538;DHT22;12022;52.266;10.522;2022-11-20T17:14:43;1.50;99.90
1538;DHT22;12022;52.266;10.522;2022-11-20T17:17:10;1.60;99.90
1538;DHT22;12022;52.266;10.522;2022-11-20T17:19:37;1.30;99.90
1538;DHT22;12022;52.266;10.522;2022-11-20T17:22:04;1.50;99.90
1538;DHT22;12022;52.266;10.522;2022-11-20T17:24:32;1.30;99.90
1538;DHT22;12022;52.266;10.522;2022-11-20T17:27:00;1.40;99.90
1538;DHT22;12022;52.266;10.522;2022-11-20T17:29:27;1.20;99.90
1538;DHT22;12022;52.266;10.522;2022-11-20T17:31:54;1.40;99.90
1538;DHT22;12022;52.266;10.522;2022-11-20T17:34:21;1.50;99.90
1538;DHT22;12022;52.266;10.522;2022-11-20T17:36:52;1.30;99.90
1538;DHT22;12022;52.266;10.522;2022-11-20T17:39:21;1.50;99.90